createdAt,value
2022-08-09T00:00:21.023Z,74861.81
2022-08-09T00:02:49.869Z,74861.81
2022-08-09T00:06:17.654Z,74878.25
2022-08-09T00:08:09.996Z,74872.09
2022-08-09T00:10:41.269Z,74853.59
2022-08-09T00:13:17.429Z,74855.66
2022-08-09T00:15:59.508Z,74841.28
2022-08-09T00:18:34.546Z,74853.59
2022-08-09T00:21:07.988Z,74849.50
2022-08-09T00:23:55.965Z,74837.16
2022-08-09T00:26:32.664Z,74833.06
2022-08-09T00:29:02.378Z,74841.28
2022-08-09T00:31:57.217Z,74861.81
2022-08-09T00:34:19.137Z,74855.66
2022-08-09T00:36:50.044Z,74888.53
2022-08-09T00:40:10.438Z,74890.59
2022-08-09T00:44:15.308Z,74884.44
2022-08-09T00:44:55.054Z,74884.44
2022-08-09T00:47:25.003Z,74882.38
2022-08-09T00:49:55.037Z,74890.59
2022-08-09T00:52:30.450Z,74886.47
2022-08-09T00:55:00.096Z,74902.91
2022-08-09T00:57:34.874Z,74925.53
2022-08-09T01:00:21.438Z,74927.56
2022-08-09T01:03:12.860Z,74931.69
2022-08-09T01:05:54.580Z,74921.41
2022-08-09T01:08:28.310Z,74923.47
2022-08-09T01:11:19.938Z,74917.31
2022-08-09T01:13:59.015Z,74919.34
2022-08-09T01:16:39.808Z,74952.22
2022-08-09T01:19:40.293Z,74960.44
2022-08-09T01:22:22.219Z,74985.09
2022-08-09T01:25:00.786Z,74981.00
2022-08-09T01:27:29.255Z,74976.88
2022-08-09T01:30:01.078Z,74968.66
2022-08-09T01:32:46.249Z,74972.78
2022-08-09T01:35:38.047Z,74981.00
2022-08-09T01:38:15.487Z,74981.00
2022-08-09T01:41:08.082Z,74964.56
2022-08-09T01:43:51.161Z,74987.16
2022-08-09T01:46:26.999Z,74976.88
2022-08-09T01:49:10.023Z,74956.34
2022-08-09T01:51:58.425Z,74989.22
2022-08-09T01:54:41.014Z,74999.50
2022-08-09T01:57:16.766Z,74989.22
2022-08-09T01:59:52.019Z,75001.53
2022-08-09T02:02:21.778Z,74989.22
2022-08-09T02:04:49.167Z,74972.78
2022-08-09T02:08:35.978Z,74985.09
2022-08-09T02:10:10.805Z,74981.00
2022-08-09T02:12:39.318Z,75009.75
2022-08-09T02:15:07.978Z,74997.44
2022-08-09T02:17:59.889Z,74981.00
2022-08-09T02:20:26.416Z,75017.97
2022-08-09T02:23:11.259Z,75001.53
2022-08-09T02:25:42.459Z,75009.75
2022-08-09T02:28:41.117Z,75005.66
2022-08-09T02:31:21.939Z,74993.31
2022-08-09T02:34:07.493Z,74999.50
2022-08-09T02:36:41.976Z,75009.75
2022-08-09T02:39:14.284Z,75022.09
2022-08-09T02:42:12.970Z,75030.31
2022-08-09T02:44:47.163Z,75048.81
2022-08-09T02:47:15.494Z,75057.03
2022-08-09T02:49:55.362Z,75059.06
2022-08-09T02:52:35.348Z,75071.41
2022-08-09T02:55:03.170Z,75059.06
2022-08-09T02:58:00.310Z,75046.75
2022-08-09T03:00:30.230Z,75050.88
2022-08-09T03:02:58.260Z,75065.25
2022-08-09T03:05:28.118Z,75048.81
2022-08-09T03:07:56.080Z,75030.31
2022-08-09T03:10:25.196Z,75034.41
2022-08-09T03:12:52.778Z,75050.88
2022-08-09T03:15:23.070Z,75069.34
2022-08-09T03:17:53.865Z,75087.84
2022-08-09T03:20:29.743Z,75083.75
2022-08-09T03:22:58.383Z,75114.56
2022-08-09T03:25:58.115Z,75079.63
2022-08-09T03:28:15.151Z,75108.41
2022-08-09T03:30:44.374Z,75112.50
2022-08-09T03:33:19.121Z,75100.19
2022-08-09T03:36:15.879Z,75087.84
2022-08-09T03:38:42.139Z,75098.13
2022-08-09T03:41:15.037Z,75079.63
2022-08-09T03:44:03.606Z,75063.19
2022-08-09T03:46:34.784Z,75042.66
2022-08-09T03:49:04.367Z,75026.19
2022-08-09T03:51:55.142Z,75013.88
2022-08-09T03:54:29.862Z,75046.75
2022-08-09T03:57:00.282Z,75075.53
2022-08-09T03:59:43.241Z,75067.28
2022-08-09T04:02:14.912Z,75079.63
2022-08-09T04:04:47.896Z,75085.78
2022-08-09T04:07:18.348Z,75075.53
2022-08-09T04:09:49.962Z,75075.53
2022-08-09T04:12:33.208Z,75065.25
2022-08-09T04:15:11.105Z,75038.53
2022-08-09T04:17:42.367Z,75026.19
2022-08-09T04:20:11.775Z,75013.88
2022-08-09T04:22:41.271Z,74995.38
2022-08-09T04:25:12.064Z,75009.75
2022-08-09T04:27:48.946Z,75013.88
2022-08-09T04:30:20.672Z,75009.75
2022-08-09T04:32:48.270Z,75005.66
2022-08-09T04:35:15.859Z,74985.09
2022-08-09T04:37:46.248Z,74972.78
2022-08-09T04:40:19.351Z,74978.94
2022-08-09T04:42:56.745Z,74974.84
2022-08-09T04:45:24.439Z,74976.88
2022-08-09T04:48:03.102Z,74960.44
2022-08-09T04:50:35.096Z,74952.22
2022-08-09T04:53:13.607Z,74937.84
2022-08-09T04:55:57.426Z,74937.84
2022-08-09T04:58:27.109Z,74939.91
2022-08-09T05:00:55.473Z,74935.78
2022-08-09T05:03:40.571Z,74931.69
2022-08-09T05:06:27.211Z,74878.25
2022-08-09T05:09:00.201Z,74878.25
2022-08-09T05:11:30.467Z,74886.47
2022-08-09T05:13:59.991Z,74882.38
2022-08-09T05:16:31.682Z,74882.38
2022-08-09T05:19:00.472Z,74872.09
2022-08-09T05:21:29.940Z,74857.72
2022-08-09T05:24:01.701Z,74845.38
2022-08-09T05:26:45.808Z,74833.06
2022-08-09T05:29:21.233Z,74824.84
2022-08-09T05:31:56.845Z,74812.53
2022-08-09T05:34:30.926Z,74787.88
2022-08-09T05:37:05.241Z,74791.97
2022-08-09T05:39:43.139Z,74787.88
2022-08-09T05:42:17.294Z,74773.47
2022-08-09T05:44:51.328Z,74779.66
2022-08-09T05:47:23.266Z,74752.94
2022-08-09T05:50:26.746Z,74738.56
2022-08-09T05:52:42.288Z,74738.56
2022-08-09T05:55:20.908Z,74722.13
2022-08-09T05:57:56.650Z,74705.69
2022-08-09T06:00:30.101Z,74713.91
2022-08-09T06:02:58.552Z,74701.56
2022-08-09T06:05:50.099Z,74701.56
2022-08-09T06:08:14.301Z,74676.91
2022-08-09T06:10:47.261Z,74672.81
2022-08-09T06:13:18.718Z,74664.59
2022-08-09T06:15:52.331Z,74656.38
2022-08-09T06:18:23.996Z,74633.78
2022-08-09T06:20:54.554Z,74621.44
2022-08-09T06:23:55.043Z,74607.06
2022-08-09T06:26:12.456Z,74582.41
2022-08-09T06:28:43.280Z,74553.66
2022-08-09T06:31:10.837Z,74557.75
2022-08-09T06:33:40.981Z,74539.25
2022-08-09T06:36:09.469Z,74529.00
2022-08-09T06:38:47.917Z,74524.88
2022-08-09T06:41:20.474Z,74500.22
2022-08-09T06:43:47.968Z,74496.13
2022-08-09T06:46:39.640Z,74492.00
2022-08-09T06:49:03.070Z,74492.00
2022-08-09T06:51:31.038Z,74467.34
2022-08-09T06:54:00.823Z,74444.75
2022-08-09T06:56:30.851Z,74434.50
2022-08-09T07:00:48.871Z,74418.06
2022-08-09T07:01:53.548Z,74393.41
2022-08-09T07:04:22.161Z,74368.75
2022-08-09T07:06:53.156Z,74356.44
2022-08-09T07:09:54.873Z,74340.00
2022-08-09T07:12:13.788Z,74333.81
2022-08-09T07:14:51.461Z,74315.34
2022-08-09T07:17:23.903Z,74290.69
2022-08-09T07:19:55.504Z,74263.97
2022-08-09T07:22:39.527Z,74243.44
2022-08-09T07:25:10.758Z,74241.38
2022-08-09T07:27:42.675Z,74224.94
2022-08-09T07:30:13.378Z,74224.94
2022-08-09T07:32:41.567Z,74200.28
2022-08-09T07:35:12.017Z,74187.97
2022-08-09T07:37:43.444Z,74177.69
2022-08-09T07:40:17.120Z,74146.88
2022-08-09T07:42:59.022Z,74126.34
2022-08-09T07:45:38.436Z,74097.59
2022-08-09T07:48:28.585Z,74085.25
2022-08-09T07:51:09.061Z,74056.50
2022-08-09T07:54:04.897Z,74044.19
2022-08-09T07:56:34.729Z,74031.84
2022-08-09T07:59:08.778Z,74050.34
2022-08-09T08:01:43.221Z,74029.81
2022-08-09T08:04:20.670Z,74015.41
2022-08-09T08:07:14.853Z,74015.41
2022-08-09T08:09:54.935Z,73994.88
2022-08-09T08:12:37.102Z,73970.22
2022-08-09T08:15:17.401Z,73949.69
2022-08-09T08:17:55.045Z,73949.69
2022-08-09T08:20:29.521Z,73939.41
2022-08-09T08:23:03.492Z,73916.81
2022-08-09T08:25:44.681Z,73908.59
2022-08-09T08:28:15.216Z,73888.06
2022-08-09T08:30:46.797Z,73875.75
2022-08-09T08:33:22.854Z,73846.97
2022-08-09T08:36:00.039Z,73838.78
2022-08-09T08:38:29.250Z,73836.72
2022-08-09T08:40:57.020Z,73826.44
2022-08-09T08:43:24.582Z,73814.13
2022-08-09T08:46:09.993Z,73801.78
2022-08-09T08:48:51.426Z,73793.59
2022-08-09T08:51:19.395Z,73779.19
2022-08-09T08:54:03.790Z,73760.72
2022-08-09T08:56:38.781Z,73736.06
2022-08-09T08:59:19.886Z,73727.84
2022-08-09T09:01:53.385Z,73707.31
2022-08-09T09:04:28.818Z,73705.25
2022-08-09T09:06:58.126Z,73670.34
2022-08-09T09:09:41.201Z,73653.91
2022-08-09T09:12:18.029Z,73612.84
2022-08-09T09:14:46.596Z,73555.31
2022-08-09T09:17:16.589Z,73514.25
2022-08-09T09:19:44.015Z,73432.09
2022-08-09T09:22:16.780Z,73288.34
2022-08-09T09:26:00.321Z,73173.31
2022-08-09T09:28:04.055Z,73000.81
2022-08-09T09:30:41.015Z,72906.38
2022-08-09T09:33:15.683Z,72750.31
2022-08-09T09:36:01.843Z,72553.19
2022-08-09T09:38:57.450Z,72520.34
2022-08-09T09:41:27.873Z,72471.06
2022-08-09T09:44:11.419Z,72343.75
2022-08-09T09:46:50.369Z,72372.50
2022-08-09T09:49:32.289Z,72405.34
2022-08-09T09:52:16.420Z,72364.28
2022-08-09T09:55:16.547Z,72339.66
2022-08-09T09:58:16.588Z,72261.63
2022-08-09T10:00:54.935Z,72204.16
2022-08-09T10:03:43.916Z,72335.56
2022-08-09T10:06:12.562Z,72163.09
2022-08-09T10:08:57.329Z,72191.84
2022-08-09T10:12:00.779Z,72089.19
2022-08-09T10:14:31.865Z,72076.88
2022-08-09T10:17:39.905Z,71998.84
2022-08-09T10:19:59.729Z,71916.75
2022-08-09T10:22:35.154Z,72011.16
2022-08-09T10:25:10.994Z,72041.97
2022-08-09T10:27:57.198Z,72000.91
2022-08-09T10:34:07.957Z,71892.09
2022-08-09T10:36:03.503Z,71896.22
2022-08-09T10:38:55.465Z,71881.84
2022-08-09T10:41:20.690Z,71801.78
2022-08-09T10:43:58.833Z,71945.47
2022-08-09T10:46:47.606Z,71885.94
2022-08-09T10:49:54.168Z,71916.75
2022-08-09T10:53:11.393Z,72031.69
2022-08-09T10:55:58.621Z,71900.31
2022-08-09T10:58:31.027Z,71791.50
2022-08-09T11:03:02.282Z,71768.94
2022-08-09T11:04:28.488Z,71883.91
2022-08-09T11:07:01.182Z,71797.66
2022-08-09T11:09:38.045Z,71764.81
2022-08-09T11:12:29.368Z,71701.19
2022-08-09T11:15:18.947Z,71703.25
2022-08-09T11:17:56.769Z,71787.41
2022-08-09T11:20:49.632Z,71824.34
2022-08-09T11:23:23.970Z,71760.72
2022-08-09T11:25:57.500Z,71785.34
2022-08-09T11:28:56.010Z,71773.03
2022-08-09T11:31:48.778Z,71799.72
2022-08-09T11:34:31.716Z,71744.31
2022-08-09T11:36:59.377Z,71719.66
2022-08-09T11:39:38.102Z,71881.84
2022-08-09T11:42:09.432Z,71883.91
2022-08-09T11:44:46.301Z,71842.84
2022-08-09T11:47:14.391Z,71924.94
2022-08-09T11:50:52.569Z,72097.41
2022-08-09T11:53:16.368Z,71966.00
2022-08-09T11:55:52.576Z,71740.19
2022-08-09T11:58:32.278Z,71760.72
2022-08-09T12:01:08.385Z,71764.81
2022-08-09T12:03:55.822Z,71707.34
2022-08-09T12:06:32.902Z,71771.00
2022-08-09T12:09:19.287Z,71830.53
2022-08-09T12:12:03.249Z,71879.78
2022-08-09T12:14:36.805Z,71896.22
2022-08-09T12:17:28.209Z,71941.38
2022-08-09T12:20:03.826Z,72031.69
2022-08-09T12:22:31.975Z,71916.75
2022-08-09T12:25:15.932Z,71777.16
2022-08-09T12:28:58.818Z,71857.22
2022-08-09T12:30:38.173Z,71789.47
2022-08-09T12:33:07.306Z,71814.09
2022-08-09T12:35:41.068Z,71785.34
2022-08-09T12:38:37.578Z,71957.78
2022-08-09T12:41:07.315Z,71818.19
2022-08-09T12:44:05.879Z,71773.03
2022-08-09T12:46:24.145Z,71748.41
2022-08-09T12:48:53.263Z,71826.41
2022-08-09T12:51:52.456Z,71844.88
2022-08-09T12:54:08.830Z,71795.63
2022-08-09T12:56:48.754Z,71961.91
2022-08-09T12:59:23.181Z,71986.53
2022-08-09T13:01:59.604Z,71998.84
2022-08-09T13:04:36.472Z,71978.31
2022-08-09T13:07:16.688Z,71929.06
2022-08-09T13:09:55.326Z,71832.56
2022-08-09T13:12:23.488Z,71836.69
2022-08-09T13:14:54.115Z,71838.72
2022-08-09T13:17:58.763Z,71976.28
2022-08-09T13:20:16.000Z,71945.47
2022-08-09T13:23:05.463Z,72009.13
2022-08-09T13:25:42.056Z,71826.41
2022-08-09T13:28:18.706Z,71844.88
2022-08-09T13:32:13.653Z,71814.09
2022-08-09T13:33:53.557Z,71859.25
2022-08-09T13:36:24.762Z,71828.47
2022-08-09T13:41:50.812Z,71978.31
2022-08-09T13:42:11.938Z,71916.75
2022-08-09T13:44:43.742Z,71883.91
2022-08-09T13:47:31.486Z,71863.38
2022-08-09T13:50:01.729Z,71822.31
2022-08-09T13:52:30.102Z,71888.00
2022-08-09T13:55:00.571Z,72056.34
2022-08-09T13:57:39.641Z,71916.75
2022-08-09T14:00:15.495Z,71820.25
2022-08-09T14:03:04.905Z,71949.59
2022-08-09T14:05:58.778Z,72023.50
2022-08-09T14:08:19.947Z,71910.56
2022-08-09T14:10:50.642Z,71929.06
2022-08-09T14:14:15.718Z,71871.56
2022-08-09T14:16:13.693Z,71877.72
2022-08-09T14:18:45.513Z,71871.56
2022-08-09T14:21:20.511Z,71846.94
2022-08-09T14:23:55.413Z,71908.53
2022-08-09T14:26:32.693Z,72015.28
2022-08-09T14:29:07.774Z,72093.28
2022-08-09T14:31:53.842Z,72085.06
2022-08-09T14:34:30.990Z,72286.28
2022-08-09T14:37:09.096Z,72245.22
2022-08-09T14:39:45.204Z,72208.25
2022-08-09T14:42:31.780Z,72185.69
2022-08-09T14:46:40.481Z,72187.72
2022-08-09T14:47:57.860Z,72343.75
2022-08-09T14:50:31.447Z,72310.91
2022-08-09T14:53:00.301Z,72290.38
2022-08-09T14:55:32.119Z,72216.47
2022-08-09T14:58:03.344Z,72271.91
2022-08-09T15:00:34.467Z,72224.69
2022-08-09T15:03:05.758Z,72216.47
2022-08-09T15:05:33.382Z,72331.44
2022-08-09T15:08:01.314Z,72497.75
2022-08-09T15:10:29.218Z,72380.72
2022-08-09T15:12:59.537Z,72438.22
2022-08-09T15:15:29.089Z,72446.41
2022-08-09T15:17:56.609Z,72505.97
2022-08-09T15:21:57.607Z,72520.34
2022-08-09T15:24:05.992Z,72623.00
2022-08-09T15:26:00.438Z,72709.25
2022-08-09T15:28:28.746Z,72795.47
2022-08-09T15:31:14.562Z,72709.25
2022-08-09T15:34:17.349Z,72820.13
2022-08-09T15:36:33.251Z,72939.22
2022-08-09T15:39:00.765Z,73019.31
2022-08-09T15:41:31.486Z,73039.84
2022-08-09T15:44:02.910Z,73136.38
2022-08-09T15:46:34.347Z,73317.09
2022-08-09T15:49:22.927Z,73329.41
2022-08-09T15:52:04.566Z,73319.13
2022-08-09T15:54:50.465Z,73354.06
2022-08-09T15:57:35.100Z,73411.56
2022-08-09T16:00:13.931Z,73399.22
2022-08-09T16:02:53.717Z,73448.53
2022-08-09T16:05:22.859Z,73477.28
2022-08-09T16:07:50.678Z,73493.72
2022-08-09T16:10:54.823Z,73545.06
2022-08-09T16:13:20.948Z,73543.00
2022-08-09T16:16:04.628Z,73549.16
2022-08-09T16:18:45.241Z,73551.22
2022-08-09T16:21:16.872Z,73604.63
2022-08-09T16:23:54.861Z,73625.16
2022-08-09T16:26:35.041Z,73621.06
2022-08-09T16:29:11.555Z,73662.13
2022-08-09T16:32:19.086Z,73680.63
2022-08-09T16:34:55.942Z,73699.09
2022-08-09T16:37:53.487Z,73701.16
2022-08-09T16:40:12.462Z,73705.25
2022-08-09T16:42:45.186Z,73699.09
2022-08-09T16:45:18.734Z,73713.47
2022-08-09T16:48:39.027Z,73721.69
2022-08-09T16:50:38.893Z,73771.00
2022-08-09T16:53:06.498Z,73756.59
2022-08-09T16:55:58.269Z,73756.59
2022-08-09T16:58:23.733Z,73748.38
2022-08-09T17:00:51.070Z,73764.81
2022-08-09T17:03:21.370Z,73799.75
2022-08-09T17:06:07.734Z,73824.38
2022-08-09T17:08:44.380Z,73818.22
2022-08-09T17:11:40.870Z,73844.94
2022-08-09T17:14:25.857Z,73859.31
2022-08-09T17:17:00.076Z,73871.63
2022-08-09T17:19:46.410Z,73896.28
2022-08-09T17:22:15.073Z,73920.94
2022-08-09T17:24:47.875Z,73968.19
2022-08-09T17:27:22.625Z,74007.22
2022-08-09T17:29:51.524Z,74011.31
2022-08-09T17:32:20.213Z,74019.53
2022-08-09T17:35:03.954Z,73994.88
2022-08-09T17:38:02.576Z,74040.06
2022-08-09T17:40:28.660Z,74040.06
2022-08-09T17:42:59.717Z,74048.28
2022-08-09T17:46:02.168Z,74019.53
2022-08-09T17:48:29.301Z,74044.19
2022-08-09T17:51:06.528Z,74052.41
2022-08-09T17:53:43.247Z,74093.47
2022-08-09T17:56:18.392Z,74097.59
2022-08-09T17:58:49.069Z,74122.25
2022-08-09T18:01:23.109Z,74114.03
2022-08-09T18:03:54.642Z,74105.81
2022-08-09T18:06:32.310Z,74089.38
2022-08-09T18:09:03.121Z,74093.47
2022-08-09T18:11:46.966Z,74134.56
2022-08-09T18:14:23.292Z,74124.28
2022-08-09T18:16:55.636Z,74128.41
2022-08-09T18:20:58.070Z,74142.78
2022-08-09T18:22:16.661Z,74153.06
2022-08-09T18:24:45.975Z,74146.88
2022-08-09T18:27:49.239Z,74159.22
2022-08-09T18:30:37.646Z,74163.31
2022-08-09T18:32:54.427Z,74163.31
2022-08-09T18:35:58.578Z,74163.31
2022-08-09T18:38:11.766Z,74171.53
2022-08-09T18:40:42.949Z,74192.09
2022-08-09T18:43:12.727Z,74173.59
2022-08-09T18:46:51.089Z,74194.13
2022-08-09T18:48:30.419Z,74196.19
2022-08-09T18:51:01.078Z,74200.28
2022-08-09T18:53:56.586Z,74212.63
2022-08-09T18:56:17.156Z,74218.78
2022-08-09T18:58:47.801Z,74204.41
2022-08-09T19:01:23.393Z,74202.34
2022-08-09T19:04:05.937Z,74208.50
2022-08-09T19:06:36.195Z,74253.72
2022-08-09T19:09:13.630Z,74255.75
2022-08-09T19:11:56.371Z,74266.03
2022-08-09T19:14:29.520Z,74284.53
2022-08-09T19:16:57.000Z,74266.03
2022-08-09T19:19:28.045Z,74274.25
2022-08-09T19:22:06.713Z,74280.41
2022-08-09T19:25:09.796Z,74296.84
2022-08-09T19:27:28.446Z,74290.69
2022-08-09T19:30:22.565Z,74278.34
2022-08-09T19:32:44.313Z,74290.69
2022-08-09T19:35:11.593Z,74317.38
2022-08-09T19:37:54.398Z,74331.78
2022-08-09T19:40:24.032Z,74356.44
2022-08-09T19:43:02.045Z,74356.44
2022-08-09T19:45:39.103Z,74352.31
2022-08-09T19:48:09.583Z,74379.03
2022-08-09T19:50:49.250Z,74366.69
2022-08-09T19:53:20.771Z,74381.06
2022-08-09T19:56:03.205Z,74393.41
2022-08-09T19:58:34.468Z,74407.78
2022-08-09T20:01:01.830Z,74422.16
2022-08-09T20:04:10.665Z,74401.63
2022-08-09T20:06:23.704Z,74397.50
2022-08-09T20:08:57.927Z,74413.94
2022-08-09T20:11:43.098Z,74405.72
2022-08-09T20:14:15.600Z,74422.16
2022-08-09T20:16:53.214Z,74450.94
2022-08-09T20:19:48.233Z,74442.72
2022-08-09T20:22:14.521Z,74448.88
2022-08-09T20:24:42.951Z,74436.53
2022-08-09T20:27:21.498Z,74436.53
2022-08-09T20:29:49.496Z,74463.25
2022-08-09T20:32:30.750Z,74479.69
2022-08-09T20:35:01.424Z,74475.56
2022-08-09T20:38:19.563Z,74485.84
2022-08-09T20:40:26.390Z,74487.91
2022-08-09T20:43:00.048Z,74496.13
2022-08-09T20:46:01.507Z,74475.56
2022-08-09T20:48:21.207Z,74477.63
2022-08-09T20:50:55.791Z,74492.00
2022-08-09T20:53:37.652Z,74510.50
2022-08-09T20:56:08.637Z,74496.13
2022-08-09T20:58:36.371Z,74494.06
2022-08-09T21:01:32.554Z,74496.13
2022-08-09T21:05:48.912Z,74492.00
2022-08-09T21:06:44.464Z,74496.13
2022-08-09T21:09:14.062Z,74508.44
2022-08-09T21:14:31.327Z,74512.56
2022-08-09T21:17:00.469Z,74504.34
2022-08-09T21:20:17.549Z,74516.66
2022-08-09T21:22:35.907Z,74516.66
2022-08-09T21:25:25.887Z,74541.31
2022-08-09T21:28:07.275Z,74531.03
2022-08-09T21:30:40.179Z,74533.09
2022-08-09T21:33:08.737Z,74533.09
2022-08-09T21:35:40.822Z,74531.03
2022-08-09T21:38:21.016Z,74524.88
2022-08-09T21:40:58.885Z,74531.03
2022-08-09T21:43:56.122Z,74551.59
2022-08-09T21:46:13.973Z,74561.88
2022-08-09T21:48:42.601Z,74565.97
2022-08-09T21:51:24.180Z,74549.53
2022-08-09T21:54:02.485Z,74557.75
2022-08-09T21:56:43.604Z,74574.19
2022-08-09T21:59:17.077Z,74565.97
2022-08-09T22:02:00.648Z,74561.88
2022-08-09T22:04:55.391Z,74559.81
2022-08-09T22:07:23.451Z,74555.69
2022-08-09T22:10:06.681Z,74549.53
2022-08-09T22:12:34.523Z,74561.88
2022-08-09T22:15:02.747Z,74553.66
2022-08-09T22:17:32.199Z,74547.47
2022-08-09T22:20:00.581Z,74584.47
2022-08-09T22:22:29.081Z,74574.19
2022-08-09T22:26:05.377Z,74598.84
2022-08-09T22:27:43.619Z,74596.78
2022-08-09T22:30:11.576Z,74588.56
2022-08-09T22:32:38.869Z,74590.63
2022-08-09T22:36:01.086Z,74598.84
2022-08-09T22:38:06.669Z,74574.19
2022-08-09T22:40:35.272Z,74598.84
2022-08-09T22:43:08.690Z,74615.28
2022-08-09T22:48:15.662Z,74598.84
2022-08-09T22:48:36.208Z,74617.34
2022-08-09T22:51:10.893Z,74623.50
2022-08-09T22:54:01.043Z,74629.66
2022-08-09T22:56:33.602Z,74631.72
2022-08-09T22:59:05.709Z,74633.78
2022-08-09T23:01:49.278Z,74623.50
2022-08-09T23:04:17.253Z,74635.81
2022-08-09T23:07:03.594Z,74639.94
2022-08-09T23:09:39.491Z,74613.22
2022-08-09T23:12:07.011Z,74619.38
2022-08-09T23:14:39.242Z,74633.78
2022-08-09T23:17:10.793Z,74652.25
2022-08-09T23:20:01.130Z,74652.25
2022-08-09T23:22:25.812Z,74635.81
2022-08-09T23:24:53.075Z,74662.53
2022-08-09T23:27:20.364Z,74668.69
2022-08-09T23:29:47.633Z,74668.69
2022-08-09T23:32:14.956Z,74681.03
2022-08-09T23:34:42.647Z,74652.25
2022-08-09T23:37:09.919Z,74654.31
2022-08-09T23:39:37.281Z,74631.72
2022-08-09T23:42:05.414Z,74656.38
2022-08-09T23:44:32.682Z,74648.16
2022-08-09T23:47:00.092Z,74639.94
2022-08-09T23:49:27.526Z,74639.94
2022-08-09T23:51:54.971Z,74656.38
2022-08-09T23:54:23.061Z,74664.59
2022-08-09T23:56:58.060Z,74697.47
2022-08-09T23:59:25.823Z,74685.13
